Airfield :
LOGIN :

Register | Disclaimer

   EN    FR    IT 

 










Legend :    VFR   Marginal VFR   IFR   Intensive IFR   Very Intensive IFR
Visi :
Ceiling :
>= 8 km
>= 3000ft
5 to 8 km
1000 to 3000 ft
1500m to 5 km
500 to 1000 ft
800 to 1500m
200 to 500 ft
< 800m
< 200 ft
Symbols :   Thunderstorms  Fog  Heavy snow  Heavy precipitations  Wind > 20 kt
SIGMETs :     Misc.  Thunderstorms  Icing  Turbulence  Mountain Waves  Volcanic Ashes






- Airport Elevation : 357 ft
- IATA code : TUF


LFOT - Tours

CURRENT METAR :
  • 231900Z AUTO 06006KT CAVOK 14/13 Q1005 NOSIG

EXPIRED METARs :
  • 231830Z AUTO 04004KT 360V070 CAVOK 15/14 Q1006 NOSIG
  • 231800Z AUTO VRB03KT CAVOK 15/14 Q1007 NOSIG
  • 231730Z AUTO 04005KT 360V080 CAVOK 16/14 Q1006 NOSIG
  • 231700Z AUTO 06006KT CAVOK 16/14 Q1006 NOSIG
  • 231630Z AUTO 05005KT 360V070 CAVOK 16/14 Q1006 NOSIG

TAF TAF LFOT
Valid from the 23 at 18:00 until the 24 at 18:00 UTC


231700Z 2318/2418 08006KT CAVOK
BECMG 2323/2402 18004KT 6000 BKN016
TEMPO 2404/2408 4000 BR BKN008
BECMG 2404/2406 18012KT
TEMPO 2408/2415 18015G27KT -RA BKN012



MET'MAP, your aeronautical weather chart ! - Copyright ORBIFLY December 2007 - Disclaimer

ORBIFLY MET'MAP TEAM :

Programming & Development : Alexandra Zaïnal
Concept & Development : Baudouin d'Aumeries
Co-Development & Prog : Marc-Olivier Méhu
Technical & hardware support : Manuel Goepfert

Contact : metmap@orbifly.com




SOURCES & CREDITS :

   NOAA